sensor_id;sensor_type;location;lat;lon;timestamp;P1;P2;P0
66149;PMS5003;52952;50.904;20.648;2024-03-08T00:10:17;58;44;26
66149;PMS5003;52952;50.904;20.648;2024-03-08T00:20:11;58;44;26
66149;PMS5003;52952;50.904;20.648;2024-03-08T00:30:06;58;44;26
66149;PMS5003;52952;50.904;20.648;2024-03-08T00:40:15;49;40;23
66149;PMS5003;52952;50.904;20.648;2024-03-08T00:50:14;49;40;23
66149;PMS5003;52952;50.904;20.648;2024-03-08T01:00:02;49;40;23
66149;PMS5003;52952;50.904;20.648;2024-03-08T01:10:13;54;43;23
66149;PMS5003;52952;50.904;20.648;2024-03-08T01:20:15;54;43;23
66149;PMS5003;52952;50.904;20.648;2024-03-08T01:30:01;54;43;23
66149;PMS5003;52952;50.904;20.648;2024-03-08T01:40:09;45;39;23
66149;PMS5003;52952;50.904;20.648;2024-03-08T01:50:16;45;39;23
66149;PMS5003;52952;50.904;20.648;2024-03-08T02:00:15;45;39;23
66149;PMS5003;52952;50.904;20.648;2024-03-08T02:10:12;50;38;23
66149;PMS5003;52952;50.904;20.648;2024-03-08T02:20:09;50;38;23
66149;PMS5003;52952;50.904;20.648;2024-03-08T02:30:13;50;38;23
66149;PMS5003;52952;50.904;20.648;2024-03-08T02:40:02;39;35;22
66149;PMS5003;52952;50.904;20.648;2024-03-08T02:50:08;39;35;22
66149;PMS5003;52952;50.904;20.648;2024-03-08T03:00:12;39;35;22
66149;PMS5003;52952;50.904;20.648;2024-03-08T03:10:17;46;39;22
66149;PMS5003;52952;50.904;20.648;2024-03-08T03:20:37;46;39;22
66149;PMS5003;52952;50.904;20.648;2024-03-08T03:30:33;46;39;22
66149;PMS5003;52952;50.904;20.648;2024-03-08T03:40:15;42;36;22
66149;PMS5003;52952;50.904;20.648;2024-03-08T03:50:04;42;36;22
66149;PMS5003;52952;50.904;20.648;2024-03-08T04:00:19;42;36;22
66149;PMS5003;52952;50.904;20.648;2024-03-08T04:10:17;59;48;29
66149;PMS5003;52952;50.904;20.648;2024-03-08T04:20:17;59;48;29
66149;PMS5003;52952;50.904;20.648;2024-03-08T04:30:04;59;48;29
66149;PMS5003;52952;50.904;20.648;2024-03-08T04:40:09;61;49;27
66149;PMS5003;52952;50.904;20.648;2024-03-08T04:50:13;61;49;27
66149;PMS5003;52952;50.904;20.648;2024-03-08T05:00:17;61;49;27
66149;PMS5003;52952;50.904;20.648;2024-03-08T05:10:11;61;48;29
66149;PMS5003;52952;50.904;20.648;2024-03-08T05:20:02;61;48;29
66149;PMS5003;52952;50.904;20.648;2024-03-08T05:30:03;61;48;29
66149;PMS5003;52952;50.904;20.648;2024-03-08T05:40:11;55;46;27
66149;PMS5003;52952;50.904;20.648;2024-03-08T05:50:08;55;46;27
66149;PMS5003;52952;50.904;20.648;2024-03-08T06:00:19;55;46;27
66149;PMS5003;52952;50.904;20.648;2024-03-08T06:10:04;51;43;25
66149;PMS5003;52952;50.904;20.648;2024-03-08T06:20:04;51;43;25
66149;PMS5003;52952;50.904;20.648;2024-03-08T06:30:05;51;43;25
66149;PMS5003;52952;50.904;20.648;2024-03-08T06:40:14;58;45;27
66149;PMS5003;52952;50.904;20.648;2024-03-08T06:50:02;58;45;27
66149;PMS5003;52952;50.904;20.648;2024-03-08T07:00:02;58;45;27
66149;PMS5003;52952;50.904;20.648;2024-03-08T07:10:19;56;46;28
66149;PMS5003;52952;50.904;20.648;2024-03-08T07:20:22;56;46;28
66149;PMS5003;52952;50.904;20.648;2024-03-08T07:30:13;56;46;28
66149;PMS5003;52952;50.904;20.648;2024-03-08T07:50:10;50;41;25
66149;PMS5003;52952;50.904;20.648;2024-03-08T08:00:24;50;41;25
66149;PMS5003;52952;50.904;20.648;2024-03-08T08:10:16;33;30;20
66149;PMS5003;52952;50.904;20.648;2024-03-08T08:20:08;33;30;20
66149;PMS5003;52952;50.904;20.648;2024-03-08T08:30:19;33;30;20
66149;PMS5003;52952;50.904;20.648;2024-03-08T08:40:14;34;31;21
66149;PMS5003;52952;50.904;20.648;2024-03-08T08:50:11;34;31;21
66149;PMS5003;52952;50.904;20.648;2024-03-08T09:00:20;34;31;21
66149;PMS5003;52952;50.904;20.648;2024-03-08T09:10:04;41;36;23
66149;PMS5003;52952;50.904;20.648;2024-03-08T09:20:07;41;36;23
66149;PMS5003;52952;50.904;20.648;2024-03-08T09:30:07;41;36;23
66149;PMS5003;52952;50.904;20.648;2024-03-08T09:40:19;45;35;23
66149;PMS5003;52952;50.904;20.648;2024-03-08T09:50:18;45;35;23
66149;PMS5003;52952;50.904;20.648;2024-03-08T10:00:31;45;35;23
66149;PMS5003;52952;50.904;20.648;2024-03-08T10:10:12;43;36;22
66149;PMS5003;52952;50.904;20.648;2024-03-08T10:20:24;43;36;22
66149;PMS5003;52952;50.904;20.648;2024-03-08T10:30:25;43;36;22
66149;PMS5003;52952;50.904;20.648;2024-03-08T10:50:25;32;29;19
66149;PMS5003;52952;50.904;20.648;2024-03-08T11:00:08;32;29;19
66149;PMS5003;52952;50.904;20.648;2024-03-08T11:10:20;33;31;19
66149;PMS5003;52952;50.904;20.648;2024-03-08T11:20:07;33;31;19
66149;PMS5003;52952;50.904;20.648;2024-03-08T11:30:02;33;31;19
66149;PMS5003;52952;50.904;20.648;2024-03-08T11:40:14;33;31;19
66149;PMS5003;52952;50.904;20.648;2024-03-08T11:50:13;33;31;19
66149;PMS5003;52952;50.904;20.648;2024-03-08T12:00:02;33;31;19
66149;PMS5003;52952;50.904;20.648;2024-03-08T12:20:20;34;31;19
66149;PMS5003;52952;50.904;20.648;2024-03-08T12:30:27;34;31;19
66149;PMS5003;52952;50.904;20.648;2024-03-08T12:40:30;32;30;20
66149;PMS5003;52952;50.904;20.648;2024-03-08T12:50:17;32;30;20
66149;PMS5003;52952;50.904;20.648;2024-03-08T13:00:19;32;30;20
66149;PMS5003;52952;50.904;20.648;2024-03-08T13:10:09;29;28;17
66149;PMS5003;52952;50.904;20.648;2024-03-08T13:20:23;29;28;17
66149;PMS5003;52952;50.904;20.648;2024-03-08T13:30:05;29;28;17
66149;PMS5003;52952;50.904;20.648;2024-03-08T13:50:03;29;27;18
66149;PMS5003;52952;50.904;20.648;2024-03-08T14:00:01;29;27;18
66149;PMS5003;52952;50.904;20.648;2024-03-08T14:20:18;33;31;17
66149;PMS5003;52952;50.904;20.648;2024-03-08T14:30:13;33;31;17
66149;PMS5003;52952;50.904;20.648;2024-03-08T14:40:08;29;28;19
66149;PMS5003;52952;50.904;20.648;2024-03-08T14:50:07;29;28;19
66149;PMS5003;52952;50.904;20.648;2024-03-08T15:00:02;29;28;19
66149;PMS5003;52952;50.904;20.648;2024-03-08T15:20:04;33;30;19
66149;PMS5003;52952;50.904;20.648;2024-03-08T15:30:22;33;30;19
66149;PMS5003;52952;50.904;20.648;2024-03-08T15:40:24;31;30;19
66149;PMS5003;52952;50.904;20.648;2024-03-08T15:50:12;31;30;19
66149;PMS5003;52952;50.904;20.648;2024-03-08T16:00:36;31;30;19
66149;PMS5003;52952;50.904;20.648;2024-03-08T16:10:11;39;33;20
66149;PMS5003;52952;50.904;20.648;2024-03-08T16:20:11;39;33;20
66149;PMS5003;52952;50.904;20.648;2024-03-08T16:30:09;39;33;20
66149;PMS5003;52952;50.904;20.648;2024-03-08T16:40:07;28;28;19
66149;PMS5003;52952;50.904;20.648;2024-03-08T16:50:17;28;28;19
66149;PMS5003;52952;50.904;20.648;2024-03-08T17:00:29;28;28;19
66149;PMS5003;52952;50.904;20.648;2024-03-08T17:20:01;50;40;25
66149;PMS5003;52952;50.904;20.648;2024-03-08T17:30:33;50;40;25
66149;PMS5003;52952;50.904;20.648;2024-03-08T17:50:06;59;44;27
66149;PMS5003;52952;50.904;20.648;2024-03-08T18:00:11;59;44;27
66149;PMS5003;52952;50.904;20.648;2024-03-08T18:10:02;59;44;27
66149;PMS5003;52952;50.904;20.648;2024-03-08T18:20:06;57;48;29
66149;PMS5003;52952;50.904;20.648;2024-03-08T18:30:19;57;48;29
66149;PMS5003;52952;50.904;20.648;2024-03-08T18:50:19;70;54;33
66149;PMS5003;52952;50.904;20.648;2024-03-08T19:00:13;70;54;33
66149;PMS5003;52952;50.904;20.648;2024-03-08T19:20:06;71;52;32
66149;PMS5003;52952;50.904;20.648;2024-03-08T19:30:17;71;52;32
66149;PMS5003;52952;50.904;20.648;2024-03-08T19:40:32;71;52;32
66149;PMS5003;52952;50.904;20.648;2024-03-08T19:50:01;64;49;29
66149;PMS5003;52952;50.904;20.648;2024-03-08T20:00:20;64;49;29
66149;PMS5003;52952;50.904;20.648;2024-03-08T20:10:11;64;49;29
66149;PMS5003;52952;50.904;20.648;2024-03-08T20:20:14;57;47;28
66149;PMS5003;52952;50.904;20.648;2024-03-08T20:30:03;57;47;28
66149;PMS5003;52952;50.904;20.648;2024-03-08T20:40:15;57;47;28
66149;PMS5003;52952;50.904;20.648;2024-03-08T20:50:26;54;45;27
66149;PMS5003;52952;50.904;20.648;2024-03-08T21:00:42;54;45;27
66149;PMS5003;52952;50.904;20.648;2024-03-08T21:10:14;54;45;27
66149;PMS5003;52952;50.904;20.648;2024-03-08T21:20:10;51;42;25
66149;PMS5003;52952;50.904;20.648;2024-03-08T21:30:09;51;42;25
66149;PMS5003;52952;50.904;20.648;2024-03-08T21:40:06;51;42;25
66149;PMS5003;52952;50.904;20.648;2024-03-08T21:50:16;76;59;35
66149;PMS5003;52952;50.904;20.648;2024-03-08T22:00:18;76;59;35
66149;PMS5003;52952;50.904;20.648;2024-03-08T22:10:08;76;59;35
66149;PMS5003;52952;50.904;20.648;2024-03-08T22:20:31;87;73;42
66149;PMS5003;52952;50.904;20.648;2024-03-08T22:30:16;87;73;42
66149;PMS5003;52952;50.904;20.648;2024-03-08T22:40:13;87;73;42
66149;PMS5003;52952;50.904;20.648;2024-03-08T22:50:08;81;59;37
66149;PMS5003;52952;50.904;20.648;2024-03-08T23:00:56;81;59;37
66149;PMS5003;52952;50.904;20.648;2024-03-08T23:10:07;70;54;34
66149;PMS5003;52952;50.904;20.648;2024-03-08T23:20:01;70;54;34
66149;PMS5003;52952;50.904;20.648;2024-03-08T23:30:13;70;54;34
66149;PMS5003;52952;50.904;20.648;2024-03-08T23:40:15;71;55;32
66149;PMS5003;52952;50.904;20.648;2024-03-08T23:50:24;71;55;32
